sensor_id;sensor_type;location;lat;lon;timestamp;P1;durP1;ratioP1;P2;durP2;ratioP2
7211;SDS011;3647;48.792;9.802;2023-04-24T04:23:42;1.60;;;1.50;;
7211;SDS011;3647;48.792;9.802;2023-04-24T04:26:09;2.07;;;1.70;;
7211;SDS011;3647;48.792;9.802;2023-04-24T04:28:37;1.80;;;1.60;;
7211;SDS011;3647;48.792;9.802;2023-04-24T04:31:04;1.70;;;1.60;;
7211;SDS011;3647;48.792;9.802;2023-04-24T04:33:32;4.57;;;1.93;;
7211;SDS011;3647;48.792;9.802;2023-04-24T04:36:01;2.73;;;1.77;;
7211;SDS011;3647;48.792;9.802;2023-04-24T04:38:28;2.70;;;1.93;;
7211;SDS011;3647;48.792;9.802;2023-04-24T04:40:57;2.07;;;1.97;;
7211;SDS011;3647;48.792;9.802;2023-04-24T04:43:24;2.40;;;2.20;;
7211;SDS011;3647;48.792;9.802;2023-04-24T04:45:51;2.20;;;2.00;;
7211;SDS011;3647;48.792;9.802;2023-04-24T04:48:19;4.03;;;2.80;;
7211;SDS011;3647;48.792;9.802;2023-04-24T04:50:46;2.90;;;2.60;;
7211;SDS011;3647;48.792;9.802;2023-04-24T04:53:13;3.20;;;2.83;;
7211;SDS011;3647;48.792;9.802;2023-04-24T04:55:40;2.30;;;2.20;;
7211;SDS011;3647;48.792;9.802;2023-04-24T04:58:08;2.50;;;2.30;;
7211;SDS011;3647;48.792;9.802;2023-04-24T05:00:35;2.40;;;2.30;;
7211;SDS011;3647;48.792;9.802;2023-04-24T08:02:14;2.40;;;2.00;;
7211;SDS011;3647;48.792;9.802;2023-04-24T08:04:41;2.20;;;2.00;;
7211;SDS011;3647;48.792;9.802;2023-04-24T08:07:07;2.30;;;2.00;;
7211;SDS011;3647;48.792;9.802;2023-04-24T08:09:34;1.80;;;1.70;;
7211;SDS011;3647;48.792;9.802;2023-04-24T08:12:01;2.87;;;2.40;;
7211;SDS011;3647;48.792;9.802;2023-04-24T08:14:28;2.87;;;2.20;;
7211;SDS011;3647;48.792;9.802;2023-04-24T08:16:55;3.43;;;2.27;;
7211;SDS011;3647;48.792;9.802;2023-04-24T08:19:23;4.93;;;2.07;;
7211;SDS011;3647;48.792;9.802;2023-04-24T08:21:50;2.57;;;2.20;;
7211;SDS011;3647;48.792;9.802;2023-04-24T08:24:17;4.87;;;4.30;;
7211;SDS011;3647;48.792;9.802;2023-04-24T08:26:44;3.23;;;2.93;;
7211;SDS011;3647;48.792;9.802;2023-04-24T08:29:10;4.43;;;2.10;;
7211;SDS011;3647;48.792;9.802;2023-04-24T08:31:37;2.50;;;2.30;;
7211;SDS011;3647;48.792;9.802;2023-04-24T08:34:04;2.23;;;2.07;;
7211;SDS011;3647;48.792;9.802;2023-04-24T08:36:32;2.63;;;1.80;;
7211;SDS011;3647;48.792;9.802;2023-04-24T08:38:59;2.13;;;2.00;;
7211;SDS011;3647;48.792;9.802;2023-04-24T08:41:26;2.77;;;2.23;;
7211;SDS011;3647;48.792;9.802;2023-04-24T08:43:53;2.20;;;1.90;;
7211;SDS011;3647;48.792;9.802;2023-04-24T08:46:23;2.00;;;1.90;;
7211;SDS011;3647;48.792;9.802;2023-04-24T08:48:51;1.77;;;1.67;;
7211;SDS011;3647;48.792;9.802;2023-04-24T08:51:18;2.47;;;2.10;;
7211;SDS011;3647;48.792;9.802;2023-04-24T08:53:47;1.87;;;1.70;;
7211;SDS011;3647;48.792;9.802;2023-04-24T08:56:15;3.73;;;1.80;;
7211;SDS011;3647;48.792;9.802;2023-04-24T08:58:42;1.80;;;1.70;;
7211;SDS011;3647;48.792;9.802;2023-04-24T09:01:10;2.83;;;1.80;;
7211;SDS011;3647;48.792;9.802;2023-04-24T09:03:38;2.20;;;2.00;;
7211;SDS011;3647;48.792;9.802;2023-04-24T09:06:05;1.73;;;1.63;;
7211;SDS011;3647;48.792;9.802;2023-04-24T09:08:34;2.27;;;2.03;;
7211;SDS011;3647;48.792;9.802;2023-04-24T09:11:03;2.30;;;2.10;;
7211;SDS011;3647;48.792;9.802;2023-04-24T09:13:30;2.87;;;1.60;;
7211;SDS011;3647;48.792;9.802;2023-04-24T09:15:58;2.47;;;1.90;;
7211;SDS011;3647;48.792;9.802;2023-04-24T09:18:28;2.17;;;1.97;;
7211;SDS011;3647;48.792;9.802;2023-04-24T09:20:58;2.20;;;2.00;;
7211;SDS011;3647;48.792;9.802;2023-04-24T09:23:27;1.90;;;1.60;;
7211;SDS011;3647;48.792;9.802;2023-04-24T09:25:54;1.97;;;1.80;;
7211;SDS011;3647;48.792;9.802;2023-04-24T09:28:26;1.90;;;1.80;;
7211;SDS011;3647;48.792;9.802;2023-04-24T09:31:02;2.10;;;2.00;;
7211;SDS011;3647;48.792;9.802;2023-04-24T09:33:30;2.20;;;2.00;;
7211;SDS011;3647;48.792;9.802;2023-04-24T09:35:57;2.17;;;1.77;;
7211;SDS011;3647;48.792;9.802;2023-04-24T09:38:33;2.47;;;1.73;;
7211;SDS011;3647;48.792;9.802;2023-04-24T09:41:02;1.70;;;1.60;;
7211;SDS011;3647;48.792;9.802;2023-04-24T09:43:31;2.90;;;1.70;;
7211;SDS011;3647;48.792;9.802;2023-04-24T09:45:59;2.17;;;1.97;;
7211;SDS011;3647;48.792;9.802;2023-04-24T09:48:31;2.37;;;1.90;;
7211;SDS011;3647;48.792;9.802;2023-04-24T09:50:59;1.77;;;1.67;;
7211;SDS011;3647;48.792;9.802;2023-04-24T09:53:27;1.93;;;1.60;;
7211;SDS011;3647;48.792;9.802;2023-04-24T09:55:54;1.60;;;1.50;;
7211;SDS011;3647;48.792;9.802;2023-04-24T09:58:24;2.20;;;2.00;;
7211;SDS011;3647;48.792;9.802;2023-04-24T10:00:54;2.40;;;1.83;;
7211;SDS011;3647;48.792;9.802;2023-04-24T10:03:23;3.50;;;1.90;;
7211;SDS011;3647;48.792;9.802;2023-04-24T10:05:52;2.27;;;2.07;;
7211;SDS011;3647;48.792;9.802;2023-04-24T10:08:20;3.30;;;2.00;;
7211;SDS011;3647;48.792;9.802;2023-04-24T10:10:47;1.90;;;1.80;;
7211;SDS011;3647;48.792;9.802;2023-04-24T10:13:14;2.60;;;1.80;;
7211;SDS011;3647;48.792;9.802;2023-04-24T10:15:41;4.30;;;2.10;;
7211;SDS011;3647;48.792;9.802;2023-04-24T10:18:10;1.97;;;1.87;;
7211;SDS011;3647;48.792;9.802;2023-04-24T10:20:37;5.40;;;2.20;;
7211;SDS011;3647;48.792;9.802;2023-04-24T10:23:05;2.00;;;1.90;;
7211;SDS011;3647;48.792;9.802;2023-04-24T10:25:33;2.57;;;2.20;;
7211;SDS011;3647;48.792;9.802;2023-04-24T10:28:02;2.47;;;2.27;;
7211;SDS011;3647;48.792;9.802;2023-04-24T10:30:30;3.23;;;2.10;;
7211;SDS011;3647;48.792;9.802;2023-04-24T10:33:00;2.50;;;1.90;;
7211;SDS011;3647;48.792;9.802;2023-04-24T10:35:29;2.67;;;2.10;;
7211;SDS011;3647;48.792;9.802;2023-04-24T10:37:58;2.50;;;2.30;;
7211;SDS011;3647;48.792;9.802;2023-04-24T10:40:30;2.30;;;1.80;;
7211;SDS011;3647;48.792;9.802;2023-04-24T10:42:59;2.13;;;1.93;;
7211;SDS011;3647;48.792;9.802;2023-04-24T10:45:28;2.23;;;1.97;;
7211;SDS011;3647;48.792;9.802;2023-04-24T10:47:59;1.80;;;1.70;;
7211;SDS011;3647;48.792;9.802;2023-04-24T10:50:42;1.87;;;1.77;;
7211;SDS011;3647;48.792;9.802;2023-04-24T10:53:13;1.87;;;1.60;;
7211;SDS011;3647;48.792;9.802;2023-04-24T10:55:43;2.00;;;1.90;;
7211;SDS011;3647;48.792;9.802;2023-04-24T10:58:11;2.53;;;2.00;;
7211;SDS011;3647;48.792;9.802;2023-04-24T11:00:39;1.80;;;1.70;;
7211;SDS011;3647;48.792;9.802;2023-04-24T11:03:22;3.27;;;1.80;;
7211;SDS011;3647;48.792;9.802;2023-04-24T11:05:52;5.57;;;1.60;;
7211;SDS011;3647;48.792;9.802;2023-04-24T11:08:25;1.63;;;1.53;;
7211;SDS011;3647;48.792;9.802;2023-04-24T11:10:55;2.23;;;1.50;;
7211;SDS011;3647;48.792;9.802;2023-04-24T11:13:24;1.63;;;1.53;;
7211;SDS011;3647;48.792;9.802;2023-04-24T11:18:41;1.50;;;1.40;;
7211;SDS011;3647;48.792;9.802;2023-04-24T11:21:12;2.17;;;1.60;;
7211;SDS011;3647;48.792;9.802;2023-04-24T11:23:42;1.53;;;1.43;;
7211;SDS011;3647;48.792;9.802;2023-04-24T11:26:09;1.60;;;1.50;;
7211;SDS011;3647;48.792;9.802;2023-04-24T11:28:43;2.50;;;1.50;;
7211;SDS011;3647;48.792;9.802;2023-04-24T11:34:05;1.97;;;1.87;;
7211;SDS011;3647;48.792;9.802;2023-04-24T11:36:34;3.73;;;1.50;;
7211;SDS011;3647;48.792;9.802;2023-04-24T11:39:01;2.13;;;1.50;;
7211;SDS011;3647;48.792;9.802;2023-04-24T11:41:28;2.50;;;1.90;;
7211;SDS011;3647;48.792;9.802;2023-04-24T11:43:55;2.33;;;1.70;;
7211;SDS011;3647;48.792;9.802;2023-04-24T11:46:23;2.00;;;1.80;;
7211;SDS011;3647;48.792;9.802;2023-04-24T11:48:53;1.77;;;1.53;;
7211;SDS011;3647;48.792;9.802;2023-04-24T11:51:20;2.20;;;1.80;;
7211;SDS011;3647;48.792;9.802;2023-04-24T11:53:50;1.50;;;1.40;;
7211;SDS011;3647;48.792;9.802;2023-04-24T11:56:17;2.13;;;1.90;;
7211;SDS011;3647;48.792;9.802;2023-04-24T11:58:45;1.70;;;1.60;;
7211;SDS011;3647;48.792;9.802;2023-04-24T12:01:12;1.60;;;1.50;;
7211;SDS011;3647;48.792;9.802;2023-04-24T12:03:38;2.50;;;1.67;;
7211;SDS011;3647;48.792;9.802;2023-04-24T12:06:08;1.33;;;1.23;;
7211;SDS011;3647;48.792;9.802;2023-04-24T12:08:36;1.53;;;1.43;;
7211;SDS011;3647;48.792;9.802;2023-04-24T12:11:05;2.67;;;1.40;;
7211;SDS011;3647;48.792;9.802;2023-04-24T12:13:33;1.57;;;1.47;;
7211;SDS011;3647;48.792;9.802;2023-04-24T12:16:02;1.50;;;1.40;;
7211;SDS011;3647;48.792;9.802;2023-04-24T12:18:30;1.33;;;1.23;;
7211;SDS011;3647;48.792;9.802;2023-04-24T12:23:42;3.23;;;1.50;;
7211;SDS011;3647;48.792;9.802;2023-04-24T12:26:11;1.53;;;1.43;;
7211;SDS011;3647;48.792;9.802;2023-04-24T12:28:38;1.60;;;1.50;;
7211;SDS011;3647;48.792;9.802;2023-04-24T12:31:05;3.23;;;1.40;;
7211;SDS011;3647;48.792;9.802;2023-04-24T12:33:34;2.13;;;1.37;;
7211;SDS011;3647;48.792;9.802;2023-04-24T12:36:01;1.80;;;1.50;;
7211;SDS011;3647;48.792;9.802;2023-04-24T12:38:28;1.30;;;1.20;;
7211;SDS011;3647;48.792;9.802;2023-04-24T12:41:02;1.50;;;1.40;;
7211;SDS011;3647;48.792;9.802;2023-04-24T16:08:17;3.73;;;2.40;;
7211;SDS011;3647;48.792;9.802;2023-04-24T16:10:45;2.40;;;2.13;;
7211;SDS011;3647;48.792;9.802;2023-04-24T16:13:12;2.83;;;2.07;;
7211;SDS011;3647;48.792;9.802;2023-04-24T16:15:39;1.90;;;1.80;;
7211;SDS011;3647;48.792;9.802;2023-04-24T16:18:07;2.77;;;1.80;;
7211;SDS011;3647;48.792;9.802;2023-04-24T16:20:34;2.40;;;2.20;;
7211;SDS011;3647;48.792;9.802;2023-04-24T16:23:01;3.87;;;2.40;;
7211;SDS011;3647;48.792;9.802;2023-04-24T16:25:29;2.00;;;1.90;;
7211;SDS011;3647;48.792;9.802;2023-04-24T16:27:56;2.73;;;2.20;;
7211;SDS011;3647;48.792;9.802;2023-04-24T16:30:22;2.50;;;2.30;;
7211;SDS011;3647;48.792;9.802;2023-04-24T16:32:49;2.60;;;2.40;;
7211;SDS011;3647;48.792;9.802;2023-04-24T16:35:16;7.47;;;2.67;;
7211;SDS011;3647;48.792;9.802;2023-04-24T16:37:43;2.33;;;1.93;;
7211;SDS011;3647;48.792;9.802;2023-04-24T16:40:10;2.67;;;2.10;;
7211;SDS011;3647;48.792;9.802;2023-04-24T16:42:38;2.80;;;1.97;;
7211;SDS011;3647;48.792;9.802;2023-04-24T16:45:05;3.27;;;2.40;;
7211;SDS011;3647;48.792;9.802;2023-04-24T16:47:34;2.17;;;1.80;;
7211;SDS011;3647;48.792;9.802;2023-04-24T16:50:01;1.87;;;1.77;;
7211;SDS011;3647;48.792;9.802;2023-04-24T16:52:28;2.20;;;2.00;;
7211;SDS011;3647;48.792;9.802;2023-04-24T16:54:54;2.50;;;2.30;;
7211;SDS011;3647;48.792;9.802;2023-04-24T16:57:21;2.30;;;2.07;;
7211;SDS011;3647;48.792;9.802;2023-04-24T16:59:49;3.53;;;1.80;;
7211;SDS011;3647;48.792;9.802;2023-04-24T17:02:16;2.27;;;2.03;;
7211;SDS011;3647;48.792;9.802;2023-04-24T17:04:43;2.70;;;2.07;;
7211;SDS011;3647;48.792;9.802;2023-04-24T17:07:10;2.33;;;1.57;;
7211;SDS011;3647;48.792;9.802;2023-04-24T17:09:37;1.80;;;1.70;;
7211;SDS011;3647;48.792;9.802;2023-04-24T17:12:04;1.70;;;1.60;;
7211;SDS011;3647;48.792;9.802;2023-04-24T17:14:32;1.87;;;1.77;;
7211;SDS011;3647;48.792;9.802;2023-04-24T17:17:00;1.50;;;1.40;;
7211;SDS011;3647;48.792;9.802;2023-04-24T17:19:27;2.03;;;1.83;;
7211;SDS011;3647;48.792;9.802;2023-04-24T17:21:54;2.03;;;1.87;;
7211;SDS011;3647;48.792;9.802;2023-04-24T17:24:22;2.00;;;1.80;;
7211;SDS011;3647;48.792;9.802;2023-04-24T17:26:48;1.80;;;1.70;;
7211;SDS011;3647;48.792;9.802;2023-04-24T17:29:15;2.00;;;1.80;;
7211;SDS011;3647;48.792;9.802;2023-04-24T17:31:42;1.83;;;1.50;;
7211;SDS011;3647;48.792;9.802;2023-04-24T17:34:10;3.33;;;2.10;;
7211;SDS011;3647;48.792;9.802;2023-04-24T17:36:37;2.87;;;1.70;;
7211;SDS011;3647;48.792;9.802;2023-04-24T17:39:04;2.53;;;1.90;;
7211;SDS011;3647;48.792;9.802;2023-04-24T17:41:31;2.30;;;2.10;;
7211;SDS011;3647;48.792;9.802;2023-04-24T17:43:58;3.07;;;2.40;;
7211;SDS011;3647;48.792;9.802;2023-04-24T17:46:24;2.50;;;2.17;;
7211;SDS011;3647;48.792;9.802;2023-04-24T17:48:51;2.10;;;2.00;;
7211;SDS011;3647;48.792;9.802;2023-04-24T17:51:19;2.57;;;2.37;;
7211;SDS011;3647;48.792;9.802;2023-04-24T17:53:46;3.27;;;2.70;;
7211;SDS011;3647;48.792;9.802;2023-04-24T17:56:13;2.37;;;2.17;;
7211;SDS011;3647;48.792;9.802;2023-04-24T17:58:40;3.03;;;2.53;;
7211;SDS011;3647;48.792;9.802;2023-04-24T18:01:07;2.03;;;1.83;;
7211;SDS011;3647;48.792;9.802;2023-04-24T18:03:33;2.27;;;1.90;;
7211;SDS011;3647;48.792;9.802;2023-04-24T18:06:00;2.40;;;2.20;;
7211;SDS011;3647;48.792;9.802;2023-04-24T18:08:28;2.37;;;2.17;;
7211;SDS011;3647;48.792;9.802;2023-04-24T18:10:55;2.20;;;2.10;;
7211;SDS011;3647;48.792;9.802;2023-04-24T18:13:22;3.20;;;2.10;;
7211;SDS011;3647;48.792;9.802;2023-04-24T18:15:49;2.13;;;2.03;;
7211;SDS011;3647;48.792;9.802;2023-04-24T18:18:16;2.57;;;2.07;;
7211;SDS011;3647;48.792;9.802;2023-04-24T18:20:43;2.10;;;2.00;;
7211;SDS011;3647;48.792;9.802;2023-04-24T18:23:10;1.90;;;1.80;;
7211;SDS011;3647;48.792;9.802;2023-04-24T18:25:38;3.33;;;1.93;;
7211;SDS011;3647;48.792;9.802;2023-04-24T18:28:05;3.43;;;1.80;;
7211;SDS011;3647;48.792;9.802;2023-04-24T18:30:32;2.03;;;1.90;;
7211;SDS011;3647;48.792;9.802;2023-04-24T18:32:58;2.40;;;2.20;;
7211;SDS011;3647;48.792;9.802;2023-04-24T18:35:25;2.60;;;2.03;;
7211;SDS011;3647;48.792;9.802;2023-04-24T18:37:52;2.10;;;2.00;;
7211;SDS011;3647;48.792;9.802;2023-04-24T18:40:19;2.60;;;2.40;;
7211;SDS011;3647;48.792;9.802;2023-04-24T18:42:47;2.37;;;2.17;;
7211;SDS011;3647;48.792;9.802;2023-04-24T18:45:14;2.33;;;2.13;;
7211;SDS011;3647;48.792;9.802;2023-04-24T18:47:41;3.83;;;2.80;;
7211;SDS011;3647;48.792;9.802;2023-04-24T18:50:08;3.47;;;3.17;;
7211;SDS011;3647;48.792;9.802;2023-04-24T18:52:36;4.60;;;3.80;;
7211;SDS011;3647;48.792;9.802;2023-04-24T18:55:03;5.13;;;3.77;;
7211;SDS011;3647;48.792;9.802;2023-04-24T18:57:30;4.80;;;3.97;;
7211;SDS011;3647;48.792;9.802;2023-04-24T18:59:59;4.00;;;3.70;;
7211;SDS011;3647;48.792;9.802;2023-04-24T19:02:26;5.10;;;4.20;;
7211;SDS011;3647;48.792;9.802;2023-04-24T19:04:53;6.93;;;4.03;;
7211;SDS011;3647;48.792;9.802;2023-04-24T19:07:19;5.10;;;4.20;;
7211;SDS011;3647;48.792;9.802;2023-04-24T19:09:46;7.30;;;3.80;;
7211;SDS011;3647;48.792;9.802;2023-04-24T19:12:13;4.63;;;4.03;;
7211;SDS011;3647;48.792;9.802;2023-04-24T19:14:40;5.93;;;4.90;;
7211;SDS011;3647;48.792;9.802;2023-04-24T19:17:08;5.77;;;4.63;;
7211;SDS011;3647;48.792;9.802;2023-04-24T19:19:35;6.10;;;4.67;;
7211;SDS011;3647;48.792;9.802;2023-04-24T19:22:02;4.23;;;3.83;;
7211;SDS011;3647;48.792;9.802;2023-04-24T19:24:28;5.33;;;4.53;;
7211;SDS011;3647;48.792;9.802;2023-04-24T19:26:57;5.03;;;4.47;;
7211;SDS011;3647;48.792;9.802;2023-04-24T19:29:24;8.27;;;4.33;;
7211;SDS011;3647;48.792;9.802;2023-04-24T19:31:50;5.03;;;4.00;;
7211;SDS011;3647;48.792;9.802;2023-04-24T19:34:19;6.00;;;4.70;;
7211;SDS011;3647;48.792;9.802;2023-04-24T19:36:46;4.17;;;3.77;;
7211;SDS011;3647;48.792;9.802;2023-04-24T19:39:13;4.33;;;3.90;;
7211;SDS011;3647;48.792;9.802;2023-04-24T19:41:40;3.60;;;3.30;;
7211;SDS011;3647;48.792;9.802;2023-04-24T19:44:07;6.93;;;4.20;;
7211;SDS011;3647;48.792;9.802;2023-04-24T19:46:34;3.53;;;3.23;;
7211;SDS011;3647;48.792;9.802;2023-04-24T19:49:01;5.03;;;3.50;;
7211;SDS011;3647;48.792;9.802;2023-04-24T19:51:29;3.37;;;3.00;;
7211;SDS011;3647;48.792;9.802;2023-04-24T19:53:57;3.93;;;3.20;;
7211;SDS011;3647;48.792;9.802;2023-04-24T19:56:24;3.43;;;3.13;;
7211;SDS011;3647;48.792;9.802;2023-04-24T19:58:50;3.77;;;3.10;;
7211;SDS011;3647;48.792;9.802;2023-04-24T20:01:17;4.90;;;3.03;;
7211;SDS011;3647;48.792;9.802;2023-04-24T20:03:44;4.80;;;2.50;;
7211;SDS011;3647;48.792;9.802;2023-04-24T20:06:10;2.33;;;2.20;;
7211;SDS011;3647;48.792;9.802;2023-04-24T20:08:39;2.73;;;2.50;;
7211;SDS011;3647;48.792;9.802;2023-04-24T20:11:06;3.30;;;2.37;;
7211;SDS011;3647;48.792;9.802;2023-04-24T20:13:33;2.50;;;2.30;;
7211;SDS011;3647;48.792;9.802;2023-04-24T20:16:01;3.20;;;2.50;;
7211;SDS011;3647;48.792;9.802;2023-04-24T20:18:28;3.93;;;3.40;;
7211;SDS011;3647;48.792;9.802;2023-04-24T20:20:55;3.70;;;3.33;;
7211;SDS011;3647;48.792;9.802;2023-04-24T20:23:23;4.53;;;4.13;;
7211;SDS011;3647;48.792;9.802;2023-04-24T20:25:52;4.40;;;4.00;;
7211;SDS011;3647;48.792;9.802;2023-04-24T20:28:22;7.67;;;3.93;;
7211;SDS011;3647;48.792;9.802;2023-04-24T20:30:49;4.97;;;4.47;;
7211;SDS011;3647;48.792;9.802;2023-04-24T20:33:16;4.53;;;3.87;;
7211;SDS011;3647;48.792;9.802;2023-04-24T20:35:43;4.17;;;3.80;;
7211;SDS011;3647;48.792;9.802;2023-04-24T20:38:09;5.00;;;4.43;;
7211;SDS011;3647;48.792;9.802;2023-04-24T20:40:36;4.57;;;3.90;;
7211;SDS011;3647;48.792;9.802;2023-04-24T20:43:05;4.60;;;3.70;;
7211;SDS011;3647;48.792;9.802;2023-04-24T20:45:32;5.37;;;4.23;;
7211;SDS011;3647;48.792;9.802;2023-04-24T20:47:59;4.70;;;4.10;;
7211;SDS011;3647;48.792;9.802;2023-04-24T20:50:26;6.90;;;4.23;;
7211;SDS011;3647;48.792;9.802;2023-04-24T20:52:52;8.07;;;4.17;;
7211;SDS011;3647;48.792;9.802;2023-04-24T20:55:19;5.40;;;4.43;;
7211;SDS011;3647;48.792;9.802;2023-04-24T20:57:46;4.30;;;3.80;;
7211;SDS011;3647;48.792;9.802;2023-04-24T21:00:14;4.40;;;4.00;;
7211;SDS011;3647;48.792;9.802;2023-04-24T21:02:41;4.30;;;3.90;;
7211;SDS011;3647;48.792;9.802;2023-04-24T21:05:08;4.70;;;3.20;;
7211;SDS011;3647;48.792;9.802;2023-04-24T21:07:35;4.47;;;3.20;;
7211;SDS011;3647;48.792;9.802;2023-04-24T21:10:02;6.23;;;4.30;;
7211;SDS011;3647;48.792;9.802;2023-04-24T21:12:29;5.43;;;3.83;;
